sensor_id;sensor_type;location;lat;lon;timestamp;P1;durP1;ratioP1;P2;durP2;ratioP2
75459;SDS011;64039;53.060;9.342;2023-05-07T00:01:37;12.32;;;8.40;;
75459;SDS011;64039;53.060;9.342;2023-05-07T00:04:03;13.70;;;9.48;;
75459;SDS011;64039;53.060;9.342;2023-05-07T00:06:29;15.63;;;9.38;;
75459;SDS011;64039;53.060;9.342;2023-05-07T00:08:56;13.80;;;9.27;;
75459;SDS011;64039;53.060;9.342;2023-05-07T00:11:21;13.38;;;9.20;;
75459;SDS011;64039;53.060;9.342;2023-05-07T00:13:47;13.82;;;9.55;;
75459;SDS011;64039;53.060;9.342;2023-05-07T00:16:13;12.63;;;9.20;;
75459;SDS011;64039;53.060;9.342;2023-05-07T00:18:38;13.52;;;9.20;;
75459;SDS011;64039;53.060;9.342;2023-05-07T00:21:04;14.15;;;9.73;;
75459;SDS011;64039;53.060;9.342;2023-05-07T00:23:29;16.83;;;9.77;;
75459;SDS011;64039;53.060;9.342;2023-05-07T00:25:55;14.00;;;9.40;;
75459;SDS011;64039;53.060;9.342;2023-05-07T00:28:21;13.27;;;9.50;;
75459;SDS011;64039;53.060;9.342;2023-05-07T00:30:46;13.07;;;9.02;;
75459;SDS011;64039;53.060;9.342;2023-05-07T00:33:12;13.77;;;9.18;;
75459;SDS011;64039;53.060;9.342;2023-05-07T00:35:37;17.08;;;9.70;;
75459;SDS011;64039;53.060;9.342;2023-05-07T00:38:02;13.05;;;8.93;;
75459;SDS011;64039;53.060;9.342;2023-05-07T00:40:28;12.95;;;8.70;;
75459;SDS011;64039;53.060;9.342;2023-05-07T00:42:53;13.55;;;8.73;;
75459;SDS011;64039;53.060;9.342;2023-05-07T00:45:23;14.70;;;9.45;;
75459;SDS011;64039;53.060;9.342;2023-05-07T00:47:54;12.88;;;9.25;;
75459;SDS011;64039;53.060;9.342;2023-05-07T00:50:22;12.82;;;8.98;;
75459;SDS011;64039;53.060;9.342;2023-05-07T00:52:48;12.77;;;9.15;;
75459;SDS011;64039;53.060;9.342;2023-05-07T00:55:14;12.88;;;8.85;;
75459;SDS011;64039;53.060;9.342;2023-05-07T00:57:40;13.75;;;8.75;;
75459;SDS011;64039;53.060;9.342;2023-05-07T01:00:06;13.50;;;8.25;;
75459;SDS011;64039;53.060;9.342;2023-05-07T01:02:40;13.40;;;8.98;;
75459;SDS011;64039;53.060;9.342;2023-05-07T01:05:07;13.18;;;8.93;;
75459;SDS011;64039;53.060;9.342;2023-05-07T01:07:34;12.73;;;8.75;;
75459;SDS011;64039;53.060;9.342;2023-05-07T01:10:01;14.25;;;8.65;;
75459;SDS011;64039;53.060;9.342;2023-05-07T01:12:28;12.20;;;8.68;;
75459;SDS011;64039;53.060;9.342;2023-05-07T01:14:54;14.13;;;7.97;;
75459;SDS011;64039;53.060;9.342;2023-05-07T01:17:19;14.70;;;8.90;;
75459;SDS011;64039;53.060;9.342;2023-05-07T01:19:45;12.05;;;8.02;;
75459;SDS011;64039;53.060;9.342;2023-05-07T01:22:11;13.43;;;8.38;;
75459;SDS011;64039;53.060;9.342;2023-05-07T01:24:37;12.32;;;7.85;;
75459;SDS011;64039;53.060;9.342;2023-05-07T01:27:03;15.63;;;8.35;;
75459;SDS011;64039;53.060;9.342;2023-05-07T01:29:29;12.52;;;7.75;;
75459;SDS011;64039;53.060;9.342;2023-05-07T01:31:55;13.05;;;8.18;;
75459;SDS011;64039;53.060;9.342;2023-05-07T01:34:23;12.85;;;7.78;;
75459;SDS011;64039;53.060;9.342;2023-05-07T01:36:51;12.82;;;8.13;;
75459;SDS011;64039;53.060;9.342;2023-05-07T01:39:18;13.82;;;8.40;;
75459;SDS011;64039;53.060;9.342;2023-05-07T01:41:44;12.65;;;8.27;;
75459;SDS011;64039;53.060;9.342;2023-05-07T01:44:10;15.45;;;8.65;;
75459;SDS011;64039;53.060;9.342;2023-05-07T01:46:38;12.75;;;8.15;;
75459;SDS011;64039;53.060;9.342;2023-05-07T01:49:03;12.80;;;8.57;;
75459;SDS011;64039;53.060;9.342;2023-05-07T01:51:29;12.15;;;8.60;;
75459;SDS011;64039;53.060;9.342;2023-05-07T01:53:55;12.25;;;8.30;;
75459;SDS011;64039;53.060;9.342;2023-05-07T01:56:21;15.13;;;8.38;;
75459;SDS011;64039;53.060;9.342;2023-05-07T01:58:46;14.13;;;8.90;;
75459;SDS011;64039;53.060;9.342;2023-05-07T02:01:13;19.63;;;8.63;;
75459;SDS011;64039;53.060;9.342;2023-05-07T02:03:39;12.93;;;8.23;;
75459;SDS011;64039;53.060;9.342;2023-05-07T02:06:04;14.95;;;8.63;;
75459;SDS011;64039;53.060;9.342;2023-05-07T02:08:30;15.18;;;9.20;;
75459;SDS011;64039;53.060;9.342;2023-05-07T02:10:56;12.65;;;8.10;;
75459;SDS011;64039;53.060;9.342;2023-05-07T02:13:21;14.07;;;8.27;;
75459;SDS011;64039;53.060;9.342;2023-05-07T02:15:47;14.25;;;8.45;;
75459;SDS011;64039;53.060;9.342;2023-05-07T02:18:15;12.38;;;8.10;;
75459;SDS011;64039;53.060;9.342;2023-05-07T02:20:42;12.20;;;7.95;;
75459;SDS011;64039;53.060;9.342;2023-05-07T02:23:07;13.30;;;7.80;;
75459;SDS011;64039;53.060;9.342;2023-05-07T02:25:33;13.30;;;8.60;;
75459;SDS011;64039;53.060;9.342;2023-05-07T02:27:58;14.57;;;8.02;;
75459;SDS011;64039;53.060;9.342;2023-05-07T02:30:24;12.35;;;7.70;;
75459;SDS011;64039;53.060;9.342;2023-05-07T02:32:50;13.07;;;8.15;;
75459;SDS011;64039;53.060;9.342;2023-05-07T02:35:15;12.38;;;7.53;;
75459;SDS011;64039;53.060;9.342;2023-05-07T02:37:41;12.10;;;8.02;;
75459;SDS011;64039;53.060;9.342;2023-05-07T02:40:06;12.05;;;7.32;;
75459;SDS011;64039;53.060;9.342;2023-05-07T02:42:32;14.57;;;8.25;;
75459;SDS011;64039;53.060;9.342;2023-05-07T02:44:58;14.02;;;8.63;;
75459;SDS011;64039;53.060;9.342;2023-05-07T02:47:24;11.90;;;7.45;;
75459;SDS011;64039;53.060;9.342;2023-05-07T02:49:52;15.43;;;8.57;;
75459;SDS011;64039;53.060;9.342;2023-05-07T02:52:18;11.60;;;8.13;;
75459;SDS011;64039;53.060;9.342;2023-05-07T02:54:43;10.95;;;7.85;;
75459;SDS011;64039;53.060;9.342;2023-05-07T02:57:09;12.15;;;7.28;;
75459;SDS011;64039;53.060;9.342;2023-05-07T02:59:34;10.13;;;7.22;;
75459;SDS011;64039;53.060;9.342;2023-05-07T03:02:00;12.30;;;8.20;;
75459;SDS011;64039;53.060;9.342;2023-05-07T03:04:25;12.68;;;8.00;;
75459;SDS011;64039;53.060;9.342;2023-05-07T03:06:51;11.27;;;7.50;;
75459;SDS011;64039;53.060;9.342;2023-05-07T03:09:16;13.73;;;8.15;;
75459;SDS011;64039;53.060;9.342;2023-05-07T03:11:41;13.10;;;7.47;;
75459;SDS011;64039;53.060;9.342;2023-05-07T03:14:07;13.82;;;7.65;;
75459;SDS011;64039;53.060;9.342;2023-05-07T03:16:32;12.32;;;7.07;;
75459;SDS011;64039;53.060;9.342;2023-05-07T03:18:58;14.27;;;7.47;;
75459;SDS011;64039;53.060;9.342;2023-05-07T03:21:23;11.15;;;7.18;;
75459;SDS011;64039;53.060;9.342;2023-05-07T03:23:49;11.95;;;7.25;;
75459;SDS011;64039;53.060;9.342;2023-05-07T03:26:14;9.80;;;6.38;;
75459;SDS011;64039;53.060;9.342;2023-05-07T03:28:40;12.07;;;7.22;;
75459;SDS011;64039;53.060;9.342;2023-05-07T03:31:05;10.55;;;6.65;;
75459;SDS011;64039;53.060;9.342;2023-05-07T03:33:34;11.20;;;7.35;;
75459;SDS011;64039;53.060;9.342;2023-05-07T03:36:00;10.48;;;7.13;;
75459;SDS011;64039;53.060;9.342;2023-05-07T03:38:26;10.85;;;6.80;;
75459;SDS011;64039;53.060;9.342;2023-05-07T03:40:51;9.95;;;6.70;;
75459;SDS011;64039;53.060;9.342;2023-05-07T03:43:16;10.80;;;7.07;;
75459;SDS011;64039;53.060;9.342;2023-05-07T03:45:42;10.93;;;7.35;;
75459;SDS011;64039;53.060;9.342;2023-05-07T03:48:07;10.98;;;6.70;;
75459;SDS011;64039;53.060;9.342;2023-05-07T03:50:33;10.85;;;6.97;;
75459;SDS011;64039;53.060;9.342;2023-05-07T03:52:58;10.48;;;7.00;;
75459;SDS011;64039;53.060;9.342;2023-05-07T03:55:24;12.20;;;6.88;;
75459;SDS011;64039;53.060;9.342;2023-05-07T03:57:50;10.45;;;7.40;;
75459;SDS011;64039;53.060;9.342;2023-05-07T04:00:16;12.80;;;7.22;;
75459;SDS011;64039;53.060;9.342;2023-05-07T04:02:41;11.57;;;7.78;;
75459;SDS011;64039;53.060;9.342;2023-05-07T04:05:07;11.27;;;7.40;;
75459;SDS011;64039;53.060;9.342;2023-05-07T04:07:32;11.10;;;7.60;;
75459;SDS011;64039;53.060;9.342;2023-05-07T04:09:58;11.30;;;6.88;;
75459;SDS011;64039;53.060;9.342;2023-05-07T04:12:23;13.85;;;8.80;;
75459;SDS011;64039;53.060;9.342;2023-05-07T04:14:49;12.05;;;8.13;;
75459;SDS011;64039;53.060;9.342;2023-05-07T04:17:15;11.20;;;7.85;;
75459;SDS011;64039;53.060;9.342;2023-05-07T04:19:40;12.70;;;7.40;;
75459;SDS011;64039;53.060;9.342;2023-05-07T04:22:10;11.30;;;7.38;;
75459;SDS011;64039;53.060;9.342;2023-05-07T04:24:36;11.98;;;7.85;;
75459;SDS011;64039;53.060;9.342;2023-05-07T04:27:01;12.90;;;8.35;;
75459;SDS011;64039;53.060;9.342;2023-05-07T04:29:26;12.68;;;7.65;;
75459;SDS011;64039;53.060;9.342;2023-05-07T04:31:53;10.98;;;6.85;;
75459;SDS011;64039;53.060;9.342;2023-05-07T04:34:20;9.93;;;7.20;;
75459;SDS011;64039;53.060;9.342;2023-05-07T04:36:46;11.05;;;7.47;;
75459;SDS011;64039;53.060;9.342;2023-05-07T04:39:13;10.10;;;6.75;;
75459;SDS011;64039;53.060;9.342;2023-05-07T04:41:38;11.25;;;7.28;;
75459;SDS011;64039;53.060;9.342;2023-05-07T04:44:04;9.07;;;6.65;;
75459;SDS011;64039;53.060;9.342;2023-05-07T04:46:29;8.70;;;6.32;;
75459;SDS011;64039;53.060;9.342;2023-05-07T04:48:55;8.50;;;6.47;;
75459;SDS011;64039;53.060;9.342;2023-05-07T04:51:20;9.25;;;6.63;;
75459;SDS011;64039;53.060;9.342;2023-05-07T04:53:46;11.52;;;7.93;;
75459;SDS011;64039;53.060;9.342;2023-05-07T04:56:11;8.68;;;6.15;;
75459;SDS011;64039;53.060;9.342;2023-05-07T04:58:37;12.45;;;8.43;;
75459;SDS011;64039;53.060;9.342;2023-05-07T05:01:03;8.48;;;6.40;;
75459;SDS011;64039;53.060;9.342;2023-05-07T05:03:28;8.02;;;5.65;;
75459;SDS011;64039;53.060;9.342;2023-05-07T05:05:55;7.18;;;5.07;;
75459;SDS011;64039;53.060;9.342;2023-05-07T05:08:20;7.20;;;5.50;;
75459;SDS011;64039;53.060;9.342;2023-05-07T05:10:46;8.20;;;6.03;;
75459;SDS011;64039;53.060;9.342;2023-05-07T05:13:13;7.50;;;5.43;;
75459;SDS011;64039;53.060;9.342;2023-05-07T05:15:39;8.05;;;5.65;;
75459;SDS011;64039;53.060;9.342;2023-05-07T05:18:05;7.72;;;5.47;;
75459;SDS011;64039;53.060;9.342;2023-05-07T05:20:30;8.57;;;5.85;;
75459;SDS011;64039;53.060;9.342;2023-05-07T05:22:56;7.97;;;5.57;;
75459;SDS011;64039;53.060;9.342;2023-05-07T05:25:21;11.32;;;7.03;;
75459;SDS011;64039;53.060;9.342;2023-05-07T05:27:47;7.30;;;5.88;;
75459;SDS011;64039;53.060;9.342;2023-05-07T05:30:12;8.10;;;5.90;;
75459;SDS011;64039;53.060;9.342;2023-05-07T05:32:38;7.88;;;5.85;;
75459;SDS011;64039;53.060;9.342;2023-05-07T05:35:03;7.88;;;5.55;;
75459;SDS011;64039;53.060;9.342;2023-05-07T05:37:29;7.72;;;5.57;;
75459;SDS011;64039;53.060;9.342;2023-05-07T05:39:56;7.55;;;5.47;;
75459;SDS011;64039;53.060;9.342;2023-05-07T05:42:21;11.20;;;5.65;;
75459;SDS011;64039;53.060;9.342;2023-05-07T05:44:47;7.90;;;5.57;;
75459;SDS011;64039;53.060;9.342;2023-05-07T05:47:13;7.43;;;5.05;;
75459;SDS011;64039;53.060;9.342;2023-05-07T05:49:38;15.43;;;10.52;;
75459;SDS011;64039;53.060;9.342;2023-05-07T05:52:04;7.20;;;5.10;;
75459;SDS011;64039;53.060;9.342;2023-05-07T05:54:29;6.45;;;5.10;;
75459;SDS011;64039;53.060;9.342;2023-05-07T05:56:55;7.72;;;4.85;;
75459;SDS011;64039;53.060;9.342;2023-05-07T05:59:20;7.10;;;4.88;;
75459;SDS011;64039;53.060;9.342;2023-05-07T06:01:46;6.70;;;4.72;;
75459;SDS011;64039;53.060;9.342;2023-05-07T06:04:11;5.95;;;4.50;;
75459;SDS011;64039;53.060;9.342;2023-05-07T06:06:37;7.65;;;5.20;;
75459;SDS011;64039;53.060;9.342;2023-05-07T06:09:02;7.18;;;5.10;;
75459;SDS011;64039;53.060;9.342;2023-05-07T06:11:28;8.20;;;4.93;;
75459;SDS011;64039;53.060;9.342;2023-05-07T06:13:53;5.65;;;4.40;;
75459;SDS011;64039;53.060;9.342;2023-05-07T06:16:19;5.95;;;4.72;;
75459;SDS011;64039;53.060;9.342;2023-05-07T06:18:44;6.45;;;4.70;;
75459;SDS011;64039;53.060;9.342;2023-05-07T06:21:11;5.65;;;4.57;;
75459;SDS011;64039;53.060;9.342;2023-05-07T06:23:38;6.65;;;4.78;;
75459;SDS011;64039;53.060;9.342;2023-05-07T06:26:05;5.82;;;4.70;;
75459;SDS011;64039;53.060;9.342;2023-05-07T06:28:31;7.32;;;5.40;;
75459;SDS011;64039;53.060;9.342;2023-05-07T06:31:16;7.43;;;4.60;;
75459;SDS011;64039;53.060;9.342;2023-05-07T06:33:46;10.50;;;7.18;;
75459;SDS011;64039;53.060;9.342;2023-05-07T06:36:12;7.22;;;5.28;;
75459;SDS011;64039;53.060;9.342;2023-05-07T06:38:38;8.23;;;5.82;;
75459;SDS011;64039;53.060;9.342;2023-05-07T06:41:05;5.32;;;4.13;;
75459;SDS011;64039;53.060;9.342;2023-05-07T06:43:31;6.53;;;4.60;;
75459;SDS011;64039;53.060;9.342;2023-05-07T06:45:56;6.35;;;4.68;;
75459;SDS011;64039;53.060;9.342;2023-05-07T06:48:22;7.90;;;5.35;;
75459;SDS011;64039;53.060;9.342;2023-05-07T06:50:47;9.93;;;5.18;;
75459;SDS011;64039;53.060;9.342;2023-05-07T06:53:13;12.10;;;7.60;;
75459;SDS011;64039;53.060;9.342;2023-05-07T06:55:38;26.98;;;16.40;;
75459;SDS011;64039;53.060;9.342;2023-05-07T06:58:04;9.23;;;6.07;;
75459;SDS011;64039;53.060;9.342;2023-05-07T07:00:29;8.63;;;5.82;;
75459;SDS011;64039;53.060;9.342;2023-05-07T07:02:56;7.25;;;5.05;;
75459;SDS011;64039;53.060;9.342;2023-05-07T07:05:21;7.78;;;5.50;;
75459;SDS011;64039;53.060;9.342;2023-05-07T07:07:47;7.28;;;5.60;;
75459;SDS011;64039;53.060;9.342;2023-05-07T07:10:24;7.85;;;5.05;;
75459;SDS011;64039;53.060;9.342;2023-05-07T07:12:49;6.38;;;4.80;;
75459;SDS011;64039;53.060;9.342;2023-05-07T07:15:15;11.32;;;7.63;;
75459;SDS011;64039;53.060;9.342;2023-05-07T07:17:41;8.15;;;5.22;;
75459;SDS011;64039;53.060;9.342;2023-05-07T07:20:07;8.05;;;5.72;;
75459;SDS011;64039;53.060;9.342;2023-05-07T07:22:33;6.15;;;4.70;;
75459;SDS011;64039;53.060;9.342;2023-05-07T07:24:58;7.57;;;5.25;;
75459;SDS011;64039;53.060;9.342;2023-05-07T07:27:24;8.52;;;5.38;;
75459;SDS011;64039;53.060;9.342;2023-05-07T07:29:49;7.93;;;5.72;;
75459;SDS011;64039;53.060;9.342;2023-05-07T07:32:15;8.00;;;4.90;;
75459;SDS011;64039;53.060;9.342;2023-05-07T07:34:40;8.13;;;5.55;;
75459;SDS011;64039;53.060;9.342;2023-05-07T07:37:05;7.90;;;5.68;;
75459;SDS011;64039;53.060;9.342;2023-05-07T07:39:31;7.40;;;5.57;;
75459;SDS011;64039;53.060;9.342;2023-05-07T07:41:58;10.57;;;7.20;;
75459;SDS011;64039;53.060;9.342;2023-05-07T07:44:23;12.60;;;7.65;;
75459;SDS011;64039;53.060;9.342;2023-05-07T07:46:48;8.07;;;5.32;;
75459;SDS011;64039;53.060;9.342;2023-05-07T07:49:14;8.93;;;6.25;;
75459;SDS011;64039;53.060;9.342;2023-05-07T07:51:40;7.60;;;5.43;;
75459;SDS011;64039;53.060;9.342;2023-05-07T07:54:05;8.45;;;5.85;;
75459;SDS011;64039;53.060;9.342;2023-05-07T07:56:34;7.47;;;5.38;;
75459;SDS011;64039;53.060;9.342;2023-05-07T07:58:59;7.13;;;4.85;;
75459;SDS011;64039;53.060;9.342;2023-05-07T08:01:25;6.45;;;4.93;;
75459;SDS011;64039;53.060;9.342;2023-05-07T08:03:51;7.13;;;4.93;;
75459;SDS011;64039;53.060;9.342;2023-05-07T08:06:16;7.03;;;4.80;;
75459;SDS011;64039;53.060;9.342;2023-05-07T08:08:42;6.28;;;4.47;;
75459;SDS011;64039;53.060;9.342;2023-05-07T08:11:07;6.10;;;4.28;;
75459;SDS011;64039;53.060;9.342;2023-05-07T08:13:32;6.82;;;4.85;;
75459;SDS011;64039;53.060;9.342;2023-05-07T08:15:58;7.00;;;4.93;;
75459;SDS011;64039;53.060;9.342;2023-05-07T08:18:24;7.07;;;4.90;;
75459;SDS011;64039;53.060;9.342;2023-05-07T08:20:50;7.60;;;5.22;;
75459;SDS011;64039;53.060;9.342;2023-05-07T08:23:15;8.73;;;5.45;;
75459;SDS011;64039;53.060;9.342;2023-05-07T08:25:41;7.40;;;5.07;;
75459;SDS011;64039;53.060;9.342;2023-05-07T08:28:07;8.60;;;5.32;;
75459;SDS011;64039;53.060;9.342;2023-05-07T08:30:33;7.57;;;4.90;;
75459;SDS011;64039;53.060;9.342;2023-05-07T08:32:59;7.05;;;5.03;;
75459;SDS011;64039;53.060;9.342;2023-05-07T08:35:26;9.82;;;4.90;;
75459;SDS011;64039;53.060;9.342;2023-05-07T08:37:52;7.55;;;5.38;;
75459;SDS011;64039;53.060;9.342;2023-05-07T08:40:17;6.80;;;4.90;;
75459;SDS011;64039;53.060;9.342;2023-05-07T08:42:43;7.60;;;5.07;;
75459;SDS011;64039;53.060;9.342;2023-05-07T08:45:09;6.60;;;4.88;;
75459;SDS011;64039;53.060;9.342;2023-05-07T08:47:42;10.18;;;5.00;;
75459;SDS011;64039;53.060;9.342;2023-05-07T08:50:12;9.43;;;5.72;;
75459;SDS011;64039;53.060;9.342;2023-05-07T08:52:39;8.30;;;5.43;;
75459;SDS011;64039;53.060;9.342;2023-05-07T08:55:07;6.50;;;4.97;;
75459;SDS011;64039;53.060;9.342;2023-05-07T08:57:33;7.43;;;5.57;;
75459;SDS011;64039;53.060;9.342;2023-05-07T08:59:59;10.20;;;5.43;;
75459;SDS011;64039;53.060;9.342;2023-05-07T09:02:25;9.57;;;5.53;;
75459;SDS011;64039;53.060;9.342;2023-05-07T09:04:50;7.18;;;5.47;;
75459;SDS011;64039;53.060;9.342;2023-05-07T09:07:16;7.47;;;5.35;;
75459;SDS011;64039;53.060;9.342;2023-05-07T09:09:43;7.47;;;5.10;;
75459;SDS011;64039;53.060;9.342;2023-05-07T09:12:09;7.68;;;5.10;;
75459;SDS011;64039;53.060;9.342;2023-05-07T09:14:34;8.65;;;5.38;;
75459;SDS011;64039;53.060;9.342;2023-05-07T09:17:00;8.15;;;5.40;;
75459;SDS011;64039;53.060;9.342;2023-05-07T09:19:26;10.02;;;5.85;;
75459;SDS011;64039;53.060;9.342;2023-05-07T09:21:59;9.50;;;5.35;;
75459;SDS011;64039;53.060;9.342;2023-05-07T09:24:28;8.75;;;5.57;;
75459;SDS011;64039;53.060;9.342;2023-05-07T09:26:58;8.60;;;5.85;;
75459;SDS011;64039;53.060;9.342;2023-05-07T09:29:25;9.23;;;6.43;;
75459;SDS011;64039;53.060;9.342;2023-05-07T09:31:50;7.82;;;5.75;;
75459;SDS011;64039;53.060;9.342;2023-05-07T09:34:16;7.75;;;5.05;;
75459;SDS011;64039;53.060;9.342;2023-05-07T09:36:41;6.90;;;4.88;;
75459;SDS011;64039;53.060;9.342;2023-05-07T09:39:07;8.27;;;5.75;;
75459;SDS011;64039;53.060;9.342;2023-05-07T09:41:32;11.07;;;5.93;;
75459;SDS011;64039;53.060;9.342;2023-05-07T09:44:07;7.85;;;5.50;;
75459;SDS011;64039;53.060;9.342;2023-05-07T09:46:34;7.65;;;5.55;;
75459;SDS011;64039;53.060;9.342;2023-05-07T09:49:01;6.47;;;4.70;;
75459;SDS011;64039;53.060;9.342;2023-05-07T09:54:02;6.63;;;4.25;;
75459;SDS011;64039;53.060;9.342;2023-05-07T09:56:29;6.90;;;4.55;;
75459;SDS011;64039;53.060;9.342;2023-05-07T09:58:57;6.57;;;4.70;;
75459;SDS011;64039;53.060;9.342;2023-05-07T10:01:25;6.40;;;4.90;;
75459;SDS011;64039;53.060;9.342;2023-05-07T10:03:52;8.00;;;4.82;;
75459;SDS011;64039;53.060;9.342;2023-05-07T10:06:21;7.50;;;5.25;;
75459;SDS011;64039;53.060;9.342;2023-05-07T10:08:47;6.65;;;4.90;;
75459;SDS011;64039;53.060;9.342;2023-05-07T10:11:13;6.93;;;4.65;;
75459;SDS011;64039;53.060;9.342;2023-05-07T10:13:40;7.28;;;5.38;;
75459;SDS011;64039;53.060;9.342;2023-05-07T10:16:06;6.80;;;5.10;;
75459;SDS011;64039;53.060;9.342;2023-05-07T10:18:32;6.47;;;4.75;;
75459;SDS011;64039;53.060;9.342;2023-05-07T10:21:02;7.18;;;4.60;;
75459;SDS011;64039;53.060;9.342;2023-05-07T10:23:45;6.53;;;4.82;;
75459;SDS011;64039;53.060;9.342;2023-05-07T10:26:14;7.60;;;4.78;;
75459;SDS011;64039;53.060;9.342;2023-05-07T10:28:43;6.90;;;4.55;;
75459;SDS011;64039;53.060;9.342;2023-05-07T10:33:58;7.18;;;4.88;;
75459;SDS011;64039;53.060;9.342;2023-05-07T10:36:25;6.88;;;4.78;;
75459;SDS011;64039;53.060;9.342;2023-05-07T10:38:52;6.95;;;4.57;;
75459;SDS011;64039;53.060;9.342;2023-05-07T10:41:19;5.38;;;4.30;;
75459;SDS011;64039;53.060;9.342;2023-05-07T10:43:46;6.88;;;4.70;;
75459;SDS011;64039;53.060;9.342;2023-05-07T10:46:21;6.50;;;4.63;;
75459;SDS011;64039;53.060;9.342;2023-05-07T10:51:29;8.05;;;4.70;;
75459;SDS011;64039;53.060;9.342;2023-05-07T10:56:40;6.03;;;3.97;;
75459;SDS011;64039;53.060;9.342;2023-05-07T11:01:59;5.65;;;4.35;;
75459;SDS011;64039;53.060;9.342;2023-05-07T11:04:31;6.47;;;4.35;;
75459;SDS011;64039;53.060;9.342;2023-05-07T11:15:06;5.63;;;3.70;;
75459;SDS011;64039;53.060;9.342;2023-05-07T11:17:33;5.63;;;3.95;;
75459;SDS011;64039;53.060;9.342;2023-05-07T11:20:00;5.70;;;3.83;;
75459;SDS011;64039;53.060;9.342;2023-05-07T11:25:04;7.30;;;3.77;;
75459;SDS011;64039;53.060;9.342;2023-05-07T11:27:31;4.82;;;3.63;;
75459;SDS011;64039;53.060;9.342;2023-05-07T11:29:57;6.40;;;4.10;;
75459;SDS011;64039;53.060;9.342;2023-05-07T11:32:31;4.45;;;3.40;;
75459;SDS011;64039;53.060;9.342;2023-05-07T11:34:58;6.45;;;4.00;;
75459;SDS011;64039;53.060;9.342;2023-05-07T11:37:25;6.10;;;3.60;;
75459;SDS011;64039;53.060;9.342;2023-05-07T11:40:02;4.07;;;3.50;;
75459;SDS011;64039;53.060;9.342;2023-05-07T11:42:32;4.82;;;3.90;;
75459;SDS011;64039;53.060;9.342;2023-05-07T11:44:59;7.40;;;3.60;;
75459;SDS011;64039;53.060;9.342;2023-05-07T11:47:25;4.22;;;3.40;;
75459;SDS011;64039;53.060;9.342;2023-05-07T11:49:52;4.78;;;3.20;;
75459;SDS011;64039;53.060;9.342;2023-05-07T11:52:21;5.35;;;3.45;;
75459;SDS011;64039;53.060;9.342;2023-05-07T11:54:54;4.13;;;3.40;;
75459;SDS011;64039;53.060;9.342;2023-05-07T11:57:22;6.45;;;3.30;;
75459;SDS011;64039;53.060;9.342;2023-05-07T11:59:52;4.57;;;3.20;;
75459;SDS011;64039;53.060;9.342;2023-05-07T12:02:21;4.35;;;3.35;;
75459;SDS011;64039;53.060;9.342;2023-05-07T12:04:47;4.30;;;3.17;;
75459;SDS011;64039;53.060;9.342;2023-05-07T12:07:13;4.82;;;3.65;;
75459;SDS011;64039;53.060;9.342;2023-05-07T12:09:39;5.40;;;3.40;;
75459;SDS011;64039;53.060;9.342;2023-05-07T12:12:06;4.47;;;3.42;;
75459;SDS011;64039;53.060;9.342;2023-05-07T12:14:31;4.25;;;3.10;;
75459;SDS011;64039;53.060;9.342;2023-05-07T12:16:58;4.72;;;3.20;;
75459;SDS011;64039;53.060;9.342;2023-05-07T12:19:28;3.92;;;2.90;;
75459;SDS011;64039;53.060;9.342;2023-05-07T12:21:54;4.00;;;3.00;;
75459;SDS011;64039;53.060;9.342;2023-05-07T12:24:21;5.32;;;2.63;;
75459;SDS011;64039;53.060;9.342;2023-05-07T12:26:47;5.90;;;3.58;;
75459;SDS011;64039;53.060;9.342;2023-05-07T12:29:13;4.45;;;3.15;;
75459;SDS011;64039;53.060;9.342;2023-05-07T12:31:40;4.70;;;3.15;;
75459;SDS011;64039;53.060;9.342;2023-05-07T12:34:10;4.97;;;3.10;;
75459;SDS011;64039;53.060;9.342;2023-05-07T12:36:40;5.45;;;2.80;;
75459;SDS011;64039;53.060;9.342;2023-05-07T12:39:06;5.00;;;2.83;;
75459;SDS011;64039;53.060;9.342;2023-05-07T12:41:52;4.10;;;3.03;;
75459;SDS011;64039;53.060;9.342;2023-05-07T12:44:21;6.32;;;3.42;;
75459;SDS011;64039;53.060;9.342;2023-05-07T12:46:48;4.88;;;3.17;;
75459;SDS011;64039;53.060;9.342;2023-05-07T12:49:14;4.20;;;3.20;;
75459;SDS011;64039;53.060;9.342;2023-05-07T12:51:40;4.63;;;3.50;;
75459;SDS011;64039;53.060;9.342;2023-05-07T12:54:05;4.53;;;3.60;;
75459;SDS011;64039;53.060;9.342;2023-05-07T12:56:31;6.75;;;3.55;;
75459;SDS011;64039;53.060;9.342;2023-05-07T12:58:57;4.22;;;2.83;;
75459;SDS011;64039;53.060;9.342;2023-05-07T13:01:28;6.80;;;3.50;;
75459;SDS011;64039;53.060;9.342;2023-05-07T13:03:54;10.40;;;3.17;;
75459;SDS011;64039;53.060;9.342;2023-05-07T13:06:20;4.35;;;2.80;;
75459;SDS011;64039;53.060;9.342;2023-05-07T13:08:45;3.90;;;3.30;;
75459;SDS011;64039;53.060;9.342;2023-05-07T13:11:11;5.03;;;3.15;;
75459;SDS011;64039;53.060;9.342;2023-05-07T13:13:38;6.57;;;2.90;;
75459;SDS011;64039;53.060;9.342;2023-05-07T13:16:05;3.30;;;3.00;;
75459;SDS011;64039;53.060;9.342;2023-05-07T13:18:32;4.10;;;2.83;;
75459;SDS011;64039;53.060;9.342;2023-05-07T13:20:58;3.42;;;2.75;;
75459;SDS011;64039;53.060;9.342;2023-05-07T13:23:25;4.70;;;3.42;;
75459;SDS011;64039;53.060;9.342;2023-05-07T13:25:51;7.22;;;3.22;;
75459;SDS011;64039;53.060;9.342;2023-05-07T13:28:18;7.35;;;3.85;;
75459;SDS011;64039;53.060;9.342;2023-05-07T13:30:45;4.70;;;3.75;;
75459;SDS011;64039;53.060;9.342;2023-05-07T13:33:10;5.95;;;3.92;;
75459;SDS011;64039;53.060;9.342;2023-05-07T13:35:36;4.00;;;3.03;;
75459;SDS011;64039;53.060;9.342;2023-05-07T13:38:02;4.68;;;3.40;;
75459;SDS011;64039;53.060;9.342;2023-05-07T13:40:28;4.97;;;3.22;;
75459;SDS011;64039;53.060;9.342;2023-05-07T13:42:53;4.28;;;3.35;;
75459;SDS011;64039;53.060;9.342;2023-05-07T13:45:19;3.80;;;3.38;;
75459;SDS011;64039;53.060;9.342;2023-05-07T13:47:45;4.15;;;3.22;;
75459;SDS011;64039;53.060;9.342;2023-05-07T13:50:11;5.10;;;3.22;;
75459;SDS011;64039;53.060;9.342;2023-05-07T13:52:39;4.35;;;3.30;;
75459;SDS011;64039;53.060;9.342;2023-05-07T13:55:06;3.80;;;3.40;;
75459;SDS011;64039;53.060;9.342;2023-05-07T13:57:32;3.97;;;3.10;;
75459;SDS011;64039;53.060;9.342;2023-05-07T13:59:57;3.35;;;3.00;;
75459;SDS011;64039;53.060;9.342;2023-05-07T14:02:23;4.60;;;3.30;;
75459;SDS011;64039;53.060;9.342;2023-05-07T14:04:48;4.85;;;3.85;;
75459;SDS011;64039;53.060;9.342;2023-05-07T14:07:13;6.03;;;3.90;;
75459;SDS011;64039;53.060;9.342;2023-05-07T14:09:40;4.00;;;3.53;;
75459;SDS011;64039;53.060;9.342;2023-05-07T14:12:05;5.55;;;3.42;;
75459;SDS011;64039;53.060;9.342;2023-05-07T14:14:31;3.63;;;3.00;;
75459;SDS011;64039;53.060;9.342;2023-05-07T14:16:56;4.07;;;3.40;;
75459;SDS011;64039;53.060;9.342;2023-05-07T14:19:22;5.32;;;3.22;;
75459;SDS011;64039;53.060;9.342;2023-05-07T14:21:48;4.68;;;3.85;;
75459;SDS011;64039;53.060;9.342;2023-05-07T14:24:13;7.88;;;3.50;;
75459;SDS011;64039;53.060;9.342;2023-05-07T14:26:39;6.03;;;3.58;;
75459;SDS011;64039;53.060;9.342;2023-05-07T14:29:04;4.28;;;3.53;;
75459;SDS011;64039;53.060;9.342;2023-05-07T14:31:30;5.25;;;3.63;;
75459;SDS011;64039;53.060;9.342;2023-05-07T14:33:55;5.28;;;3.42;;
75459;SDS011;64039;53.060;9.342;2023-05-07T14:36:23;4.57;;;3.60;;
75459;SDS011;64039;53.060;9.342;2023-05-07T14:38:51;4.78;;;3.13;;
75459;SDS011;64039;53.060;9.342;2023-05-07T14:41:17;3.90;;;2.90;;
75459;SDS011;64039;53.060;9.342;2023-05-07T14:43:43;3.78;;;3.13;;
75459;SDS011;64039;53.060;9.342;2023-05-07T14:46:14;3.88;;;2.95;;
75459;SDS011;64039;53.060;9.342;2023-05-07T14:48:44;4.43;;;3.42;;
75459;SDS011;64039;53.060;9.342;2023-05-07T14:51:10;5.35;;;3.50;;
75459;SDS011;64039;53.060;9.342;2023-05-07T14:53:36;3.55;;;3.00;;
75459;SDS011;64039;53.060;9.342;2023-05-07T14:56:01;4.63;;;3.47;;
75459;SDS011;64039;53.060;9.342;2023-05-07T14:58:28;4.70;;;2.97;;
75459;SDS011;64039;53.060;9.342;2023-05-07T15:00:53;4.43;;;3.47;;
75459;SDS011;64039;53.060;9.342;2023-05-07T15:03:19;3.92;;;3.35;;